createdAt,value
2023-03-27T00:00:13.533Z,100.00
2023-03-27T00:02:43.300Z,100.00
2023-03-27T00:05:12.593Z,100.00
2023-03-27T00:07:43.456Z,100.00
2023-03-27T00:10:13.541Z,100.00
2023-03-27T00:12:44.564Z,100.00
2023-03-27T00:15:17.614Z,100.00
2023-03-27T00:17:50.916Z,100.00
2023-03-27T00:20:23.104Z,100.00
2023-03-27T00:22:56.668Z,100.00
2023-03-27T00:25:28.444Z,100.00
2023-03-27T00:27:58.728Z,100.00
2023-03-27T00:30:30.081Z,100.00
2023-03-27T00:33:00.328Z,100.00
2023-03-27T00:35:31.582Z,100.00
2023-03-27T00:38:02.569Z,100.00
2023-03-27T00:40:33.636Z,100.00
2023-03-27T00:43:02.983Z,100.00
2023-03-27T00:45:35.447Z,100.00
2023-03-27T00:48:10.269Z,100.00
2023-03-27T00:50:44.076Z,100.00
2023-03-27T00:53:18.732Z,100.00
2023-03-27T00:55:51.756Z,100.00
2023-03-27T00:58:28.318Z,100.00
2023-03-27T01:00:59.548Z,100.00
2023-03-27T01:03:32.562Z,100.00
2023-03-27T01:06:03.690Z,100.00
2023-03-27T01:08:37.900Z,100.00
2023-03-27T01:11:16.582Z,100.00
2023-03-27T01:13:58.509Z,100.00
2023-03-27T01:16:35.286Z,100.00
2023-03-27T01:19:28.510Z,100.00
2023-03-27T01:22:22.162Z,100.00
2023-03-27T01:25:24.606Z,100.00
2023-03-27T01:28:22.455Z,100.00
2023-03-27T01:30:58.521Z,100.00
2023-03-27T01:33:56.841Z,100.00
2023-03-27T01:36:57.944Z,100.00
2023-03-27T01:39:47.456Z,100.00
2023-03-27T01:42:24.644Z,100.00
2023-03-27T01:45:01.610Z,100.00
2023-03-27T01:47:43.730Z,100.00
2023-03-27T01:50:20.840Z,100.00
2023-03-27T01:52:57.182Z,100.00
2023-03-27T01:55:31.772Z,100.00
2023-03-27T01:58:06.330Z,100.00
2023-03-27T02:00:50.860Z,100.00
2023-03-27T02:03:27.081Z,100.00
2023-03-27T02:06:01.478Z,100.00
2023-03-27T02:08:37.843Z,100.00
2023-03-27T02:11:39.093Z,100.00
2023-03-27T02:14:13.789Z,100.00
2023-03-27T02:16:50.247Z,100.00
2023-03-27T02:19:24.911Z,100.00
2023-03-27T02:21:54.625Z,100.00
2023-03-27T02:24:24.826Z,100.00
2023-03-27T02:27:02.094Z,100.00
2023-03-27T02:29:51.989Z,100.00
2023-03-27T02:32:35.260Z,100.00
2023-03-27T02:35:21.902Z,100.00
2023-03-27T02:38:01.353Z,100.00
2023-03-27T02:40:59.620Z,100.00
2023-03-27T02:43:57.653Z,100.00
2023-03-27T02:46:45.957Z,100.00
2023-03-27T02:49:21.270Z,100.00
2023-03-27T02:51:57.611Z,100.00
2023-03-27T02:54:32.519Z,100.00
2023-03-27T02:57:09.218Z,100.00
2023-03-27T03:00:20.437Z,100.00
2023-03-27T03:03:03.143Z,100.00
2023-03-27T03:05:37.503Z,100.00
2023-03-27T03:08:10.544Z,100.00
2023-03-27T03:10:45.325Z,100.00
2023-03-27T03:13:16.740Z,100.00
2023-03-27T03:15:48.902Z,100.00
2023-03-27T03:18:21.789Z,100.00
2023-03-27T03:20:54.717Z,100.00
2023-03-27T03:23:24.980Z,100.00
2023-03-27T03:25:56.909Z,100.00
2023-03-27T03:28:35.139Z,100.00
2023-03-27T03:31:06.474Z,100.00
2023-03-27T03:33:36.526Z,100.00
2023-03-27T03:36:06.922Z,100.00
2023-03-27T03:38:39.310Z,100.00
2023-03-27T03:41:15.278Z,100.00
2023-03-27T03:43:44.846Z,100.00
2023-03-27T03:46:15.585Z,100.00
2023-03-27T03:48:44.854Z,100.00
2023-03-27T03:51:14.390Z,100.00
2023-03-27T03:53:43.525Z,100.00
2023-03-27T03:56:13.040Z,100.00
2023-03-27T03:58:42.910Z,100.00
2023-03-27T04:01:12.845Z,100.00
2023-03-27T04:03:50.852Z,100.00
2023-03-27T04:06:21.988Z,100.00
2023-03-27T04:08:51.982Z,100.00
2023-03-27T04:11:41.506Z,100.00
2023-03-27T04:14:26.472Z,100.00
2023-03-27T04:16:59.333Z,100.00
2023-03-27T04:19:30.623Z,100.00
2023-03-27T04:22:07.122Z,100.00
2023-03-27T04:24:38.060Z,100.00
2023-03-27T04:27:07.588Z,100.00
2023-03-27T04:29:54.256Z,100.00
2023-03-27T04:32:42.317Z,100.00
2023-03-27T04:35:33.496Z,100.00
2023-03-27T04:38:17.025Z,100.00
2023-03-27T04:40:49.656Z,100.00
2023-03-27T04:43:20.262Z,100.00
2023-03-27T04:45:49.124Z,100.00
2023-03-27T04:48:18.976Z,100.00
2023-03-27T04:50:53.366Z,100.00
2023-03-27T04:53:36.488Z,100.00
2023-03-27T04:56:06.535Z,100.00
2023-03-27T04:58:41.088Z,100.00
2023-03-27T05:01:13.914Z,100.00
2023-03-27T05:04:11.792Z,100.00
2023-03-27T05:07:02.725Z,100.00
2023-03-27T05:09:31.573Z,100.00
2023-03-27T05:12:00.734Z,100.00
2023-03-27T05:14:29.687Z,100.00
2023-03-27T05:17:00.964Z,100.00
2023-03-27T05:19:30.386Z,100.00
2023-03-27T05:22:03.320Z,100.00
2023-03-27T05:24:32.922Z,100.00
2023-03-27T05:27:01.793Z,100.00
2023-03-27T05:29:46.392Z,100.00
2023-03-27T05:32:17.092Z,100.00
2023-03-27T05:35:00.132Z,100.00
2023-03-27T05:37:31.176Z,100.00
2023-03-27T05:40:22.476Z,100.00
2023-03-27T05:42:54.325Z,100.00
2023-03-27T05:45:24.586Z,100.00
2023-03-27T05:47:55.171Z,100.00
2023-03-27T05:50:25.562Z,100.00
2023-03-27T05:52:58.730Z,100.00
2023-03-27T05:55:36.174Z,100.00
2023-03-27T05:58:10.092Z,100.00
2023-03-27T06:00:42.282Z,100.00
2023-03-27T06:03:15.362Z,100.00
2023-03-27T06:06:14.570Z,100.00
2023-03-27T06:08:47.254Z,100.00
2023-03-27T06:11:16.342Z,100.00
2023-03-27T06:13:49.488Z,100.00
2023-03-27T06:16:22.423Z,100.00
2023-03-27T06:19:00.568Z,100.00
2023-03-27T06:21:32.627Z,100.00
2023-03-27T06:24:05.060Z,100.00
2023-03-27T06:26:36.943Z,100.00
2023-03-27T06:29:09.339Z,100.00
2023-03-27T06:31:45.239Z,100.00
2023-03-27T06:34:27.828Z,100.00
2023-03-27T06:37:02.894Z,100.00
2023-03-27T06:39:38.921Z,100.00
2023-03-27T06:42:07.683Z,100.00
2023-03-27T06:44:45.131Z,100.00
2023-03-27T06:47:20.040Z,100.00
2023-03-27T06:50:08.803Z,100.00
2023-03-27T06:52:38.311Z,100.00
2023-03-27T06:55:33.121Z,100.00
2023-03-27T06:58:03.424Z,100.00
2023-03-27T07:00:35.378Z,100.00
2023-03-27T07:03:36.215Z,100.00
2023-03-27T07:06:08.604Z,100.00
2023-03-27T07:08:57.835Z,100.00
2023-03-27T07:11:32.055Z,100.00
2023-03-27T07:14:08.238Z,100.00
2023-03-27T07:16:37.166Z,100.00
2023-03-27T07:19:06.531Z,100.00
2023-03-27T07:21:38.618Z,100.00
2023-03-27T07:24:08.658Z,100.00
2023-03-27T07:26:43.001Z,100.00
2023-03-27T07:29:15.718Z,99.17
2023-03-27T07:34:21.701Z,97.89
2023-03-27T07:37:18.946Z,96.02
2023-03-27T07:40:10.085Z,97.95
2023-03-27T07:42:48.161Z,100.00
2023-03-27T07:45:24.153Z,100.00
2023-03-27T07:48:06.815Z,100.00
2023-03-27T07:50:37.737Z,100.00
2023-03-27T07:53:07.404Z,100.00
2023-03-27T07:55:38.040Z,100.00
2023-03-27T07:58:10.515Z,100.00
2023-03-27T08:00:43.218Z,100.00
2023-03-27T08:03:19.806Z,100.00
2023-03-27T08:05:58.367Z,100.00
2023-03-27T08:08:29.500Z,100.00
2023-03-27T08:11:01.813Z,100.00
2023-03-27T08:13:42.491Z,100.00
2023-03-27T08:16:14.436Z,98.95
2023-03-27T08:18:44.149Z,97.65
2023-03-27T08:21:13.650Z,96.91
2023-03-27T08:23:43.102Z,94.59
2023-03-27T08:26:31.795Z,95.22
2023-03-27T08:29:05.456Z,95.86
2023-03-27T08:31:36.094Z,94.53
2023-03-27T08:34:06.871Z,92.03
2023-03-27T08:36:52.643Z,90.23
2023-03-27T08:39:24.416Z,87.23
2023-03-27T08:41:59.454Z,85.20
2023-03-27T08:44:35.582Z,81.96
2023-03-27T08:47:16.822Z,79.56
2023-03-27T08:50:20.786Z,76.95
2023-03-27T08:52:58.333Z,73.60
2023-03-27T08:55:40.400Z,72.77
2023-03-27T08:58:38.495Z,68.66
2023-03-27T09:01:31.235Z,67.15
2023-03-27T09:04:10.467Z,66.20
2023-03-27T09:06:50.493Z,66.85
2023-03-27T09:09:33.168Z,66.37
2023-03-27T09:12:09.945Z,71.14
2023-03-27T09:14:49.845Z,81.90
2023-03-27T09:17:26.743Z,82.92
2023-03-27T09:20:08.835Z,82.54
2023-03-27T09:22:44.949Z,85.69
2023-03-27T09:25:25.485Z,88.69
2023-03-27T09:28:20.818Z,87.96
2023-03-27T09:31:01.780Z,83.28
2023-03-27T09:33:41.548Z,82.80
2023-03-27T09:36:11.034Z,81.23
2023-03-27T09:38:50.515Z,83.09
2023-03-27T09:41:26.941Z,85.47
2023-03-27T09:44:04.670Z,85.15
2023-03-27T09:46:41.800Z,81.05
2023-03-27T09:49:16.172Z,78.62
2023-03-27T09:51:52.032Z,78.46
2023-03-27T09:54:53.079Z,81.29
2023-03-27T09:57:33.879Z,83.24
2023-03-27T10:00:14.453Z,87.14
2023-03-27T10:03:01.516Z,84.41
2023-03-27T10:05:33.208Z,85.48
2023-03-27T10:08:19.897Z,78.05
2023-03-27T10:11:09.173Z,77.31
2023-03-27T10:13:46.462Z,75.67
2023-03-27T10:16:21.007Z,70.67
2023-03-27T10:19:01.318Z,72.65
2023-03-27T10:21:43.138Z,75.30
2023-03-27T10:24:28.550Z,76.23
2023-03-27T10:27:18.920Z,76.98
2023-03-27T10:30:27.407Z,77.28
2023-03-27T10:33:02.390Z,79.26
2023-03-27T10:35:52.281Z,71.83
2023-03-27T10:38:37.521Z,65.21
2023-03-27T10:41:17.627Z,61.13
2023-03-27T10:43:59.432Z,59.42
2023-03-27T10:46:32.193Z,58.92
2023-03-27T10:49:21.857Z,59.33
2023-03-27T10:51:53.531Z,61.49
2023-03-27T10:54:36.318Z,61.84
2023-03-27T10:57:11.444Z,60.35
2023-03-27T10:59:46.771Z,57.93
2023-03-27T11:02:30.352Z,60.43
2023-03-27T11:05:04.356Z,62.72
2023-03-27T11:07:38.960Z,58.94
2023-03-27T11:10:18.396Z,60.24
2023-03-27T11:12:55.818Z,60.06
2023-03-27T11:15:31.606Z,58.87
2023-03-27T11:18:05.730Z,60.18
2023-03-27T11:20:53.701Z,60.96
2023-03-27T11:23:34.028Z,60.10
2023-03-27T11:26:39.589Z,60.31
2023-03-27T11:29:15.741Z,58.97
2023-03-27T11:31:53.945Z,69.67
2023-03-27T11:34:36.364Z,76.29
2023-03-27T11:37:37.428Z,74.21
2023-03-27T11:40:18.622Z,80.58
2023-03-27T11:42:50.037Z,81.35
2023-03-27T11:45:24.410Z,73.91
2023-03-27T11:48:14.302Z,68.21
2023-03-27T11:50:54.273Z,70.60
2023-03-27T11:53:38.521Z,64.90
2023-03-27T11:56:25.029Z,58.95
2023-03-27T11:59:29.478Z,58.01
2023-03-27T12:02:16.335Z,57.27
2023-03-27T12:04:51.853Z,57.30
2023-03-27T12:07:48.131Z,54.59
2023-03-27T12:10:29.321Z,53.94
2023-03-27T12:13:41.950Z,56.23
2023-03-27T12:16:35.425Z,57.47
2023-03-27T12:19:28.950Z,53.90
2023-03-27T12:22:38.039Z,56.43
2023-03-27T12:25:28.903Z,55.76
2023-03-27T12:28:42.230Z,54.61
2023-03-27T12:31:59.299Z,59.43
2023-03-27T12:34:44.860Z,59.82
2023-03-27T12:37:22.296Z,56.59
2023-03-27T12:39:54.069Z,56.38
2023-03-27T12:42:43.909Z,57.58
2023-03-27T12:45:18.167Z,62.89
2023-03-27T12:48:20.726Z,62.16
2023-03-27T12:50:59.228Z,60.98
2023-03-27T12:53:49.966Z,60.70
2023-03-27T12:56:36.296Z,60.43
2023-03-27T12:59:20.100Z,59.18
2023-03-27T13:02:16.058Z,59.43
2023-03-27T13:05:27.373Z,60.24
2023-03-27T13:08:37.608Z,68.01
2023-03-27T13:11:32.115Z,70.98
2023-03-27T13:14:27.217Z,75.31
2023-03-27T13:17:10.899Z,74.42
2023-03-27T13:19:58.698Z,77.10
2023-03-27T13:22:39.538Z,81.65
2023-03-27T13:25:47.167Z,83.84
2023-03-27T13:28:32.717Z,86.09
2023-03-27T13:31:16.739Z,88.76
2023-03-27T13:34:14.088Z,91.31
2023-03-27T13:36:48.018Z,92.61
2023-03-27T13:39:22.404Z,91.66
2023-03-27T13:42:09.744Z,90.67
2023-03-27T13:45:00.057Z,88.54
2023-03-27T13:48:06.881Z,84.15
2023-03-27T13:51:06.921Z,77.49
2023-03-27T13:54:20.821Z,65.78
2023-03-27T13:57:05.550Z,67.24
2023-03-27T13:59:53.180Z,61.94
2023-03-27T14:03:01.501Z,60.29
2023-03-27T14:06:04.297Z,61.97
2023-03-27T14:08:46.883Z,63.65
2023-03-27T14:11:51.617Z,63.84
2023-03-27T14:14:57.911Z,65.30
2023-03-27T14:17:42.766Z,64.90
2023-03-27T14:20:21.102Z,64.90
2023-03-27T14:22:57.495Z,62.02
2023-03-27T14:25:36.490Z,62.93
2023-03-27T14:28:33.758Z,58.57
2023-03-27T14:31:08.566Z,57.90
2023-03-27T14:34:04.035Z,57.67
2023-03-27T14:36:42.149Z,58.32
2023-03-27T14:39:21.436Z,58.47
2023-03-27T14:41:56.387Z,60.72
2023-03-27T14:44:32.143Z,61.85
2023-03-27T14:47:11.990Z,65.46
2023-03-27T14:49:47.557Z,68.05
2023-03-27T14:52:25.207Z,66.94
2023-03-27T14:55:18.675Z,67.06
2023-03-27T14:57:59.038Z,66.18
2023-03-27T15:00:34.523Z,63.21
2023-03-27T15:03:14.701Z,62.82
2023-03-27T15:05:58.532Z,61.64
2023-03-27T15:08:37.158Z,62.12
2023-03-27T15:11:38.443Z,62.79
2023-03-27T15:14:18.425Z,63.03
2023-03-27T15:16:55.171Z,62.40
2023-03-27T15:19:28.900Z,62.05
2023-03-27T15:22:03.713Z,63.21
2023-03-27T15:24:40.839Z,63.77
2023-03-27T15:27:18.886Z,64.14
2023-03-27T15:29:51.480Z,66.51
2023-03-27T15:32:22.242Z,72.24
2023-03-27T15:34:58.222Z,78.32
2023-03-27T15:37:30.678Z,80.20
2023-03-27T15:40:04.532Z,78.35
2023-03-27T15:42:45.842Z,77.23
2023-03-27T15:45:17.353Z,77.53
2023-03-27T15:48:00.011Z,76.28
2023-03-27T15:50:30.453Z,77.69
2023-03-27T15:53:01.484Z,79.66
2023-03-27T15:55:42.345Z,78.16
2023-03-27T15:58:20.566Z,77.71
2023-03-27T16:00:51.896Z,78.78
2023-03-27T16:03:23.524Z,79.25
2023-03-27T16:05:56.630Z,79.62
2023-03-27T16:08:31.712Z,79.51
2023-03-27T16:11:00.796Z,76.86
2023-03-27T16:13:35.608Z,75.75
2023-03-27T16:16:07.089Z,70.41
2023-03-27T16:18:38.173Z,66.35
2023-03-27T16:21:10.917Z,67.05
2023-03-27T16:23:40.707Z,66.76
2023-03-27T16:26:15.402Z,67.74
2023-03-27T16:28:44.426Z,69.19
2023-03-27T16:31:15.081Z,67.42
2023-03-27T16:33:45.473Z,68.55
2023-03-27T16:36:17.430Z,68.56
2023-03-27T16:38:46.255Z,65.70
2023-03-27T16:41:16.616Z,65.05
2023-03-27T16:43:46.145Z,64.29
2023-03-27T16:46:19.363Z,64.99
2023-03-27T16:48:47.921Z,62.60
2023-03-27T16:51:19.210Z,64.74
2023-03-27T16:53:48.047Z,67.06
2023-03-27T16:56:17.203Z,65.88
2023-03-27T16:58:46.381Z,65.15
2023-03-27T17:01:15.380Z,68.05
2023-03-27T17:03:44.137Z,68.76
2023-03-27T17:06:15.257Z,65.54
2023-03-27T17:08:45.413Z,66.34
2023-03-27T17:11:14.789Z,67.13
2023-03-27T17:13:46.490Z,66.96
2023-03-27T17:16:15.536Z,66.41
2023-03-27T17:18:44.311Z,68.67
2023-03-27T17:21:14.510Z,70.06
2023-03-27T17:23:43.614Z,70.83
2023-03-27T17:26:25.632Z,73.50
2023-03-27T17:28:55.348Z,76.02
2023-03-27T17:31:29.459Z,78.75
2023-03-27T17:34:01.056Z,79.36
2023-03-27T17:36:41.207Z,79.97
2023-03-27T17:39:13.891Z,82.11
2023-03-27T17:41:44.018Z,82.82
2023-03-27T17:44:13.396Z,84.80
2023-03-27T17:46:42.455Z,83.89
2023-03-27T17:49:11.561Z,83.78
2023-03-27T17:51:41.104Z,83.56
2023-03-27T17:54:09.892Z,84.72
2023-03-27T17:56:40.578Z,86.02
2023-03-27T17:59:11.456Z,86.75
2023-03-27T18:01:45.659Z,86.82
2023-03-27T18:04:18.096Z,87.69
2023-03-27T18:06:46.819Z,88.51
2023-03-27T18:09:15.563Z,88.92
2023-03-27T18:11:44.249Z,89.54
2023-03-27T18:14:14.357Z,90.12
2023-03-27T18:16:45.303Z,90.99
2023-03-27T18:19:14.651Z,91.23
2023-03-27T18:21:43.750Z,91.40
2023-03-27T18:24:12.527Z,91.99
2023-03-27T18:26:41.741Z,91.83
2023-03-27T18:29:11.644Z,92.89
2023-03-27T18:31:43.040Z,93.29
2023-03-27T18:34:11.763Z,92.27
2023-03-27T18:36:45.047Z,92.97
2023-03-27T18:39:14.600Z,94.19
2023-03-27T18:41:43.282Z,94.01
2023-03-27T18:44:12.310Z,93.70
2023-03-27T18:46:42.438Z,92.26
2023-03-27T18:49:23.776Z,90.36
2023-03-27T18:51:53.372Z,90.27
2023-03-27T18:54:22.096Z,89.61
2023-03-27T18:56:53.221Z,89.79
2023-03-27T18:59:22.719Z,90.45
2023-03-27T19:01:55.282Z,90.86
2023-03-27T19:04:24.175Z,91.45
2023-03-27T19:06:55.096Z,90.62
2023-03-27T19:09:31.174Z,91.62
2023-03-27T19:12:09.812Z,92.73
2023-03-27T19:15:00.403Z,92.72
2023-03-27T19:18:06.861Z,93.35
2023-03-27T19:20:55.919Z,93.61
2023-03-27T19:23:44.366Z,92.91
2023-03-27T19:26:16.491Z,92.86
2023-03-27T19:28:48.926Z,94.18
2023-03-27T19:31:17.919Z,94.36
2023-03-27T19:33:48.182Z,93.98
2023-03-27T19:36:17.167Z,94.56
2023-03-27T19:38:46.219Z,95.61
2023-03-27T19:41:14.945Z,95.81
2023-03-27T19:43:43.732Z,96.13
2023-03-27T19:46:16.528Z,95.93
2023-03-27T19:48:49.680Z,94.99
2023-03-27T19:51:40.993Z,94.76
2023-03-27T19:54:13.976Z,93.63
2023-03-27T19:56:44.795Z,93.43
2023-03-27T19:59:20.824Z,93.66
2023-03-27T20:01:57.570Z,92.83
2023-03-27T20:04:27.778Z,93.36
2023-03-27T20:07:02.316Z,93.40
2023-03-27T20:09:31.628Z,93.51
2023-03-27T20:12:03.554Z,93.05
2023-03-27T20:14:33.673Z,93.78
2023-03-27T20:17:02.536Z,93.63
2023-03-27T20:19:32.665Z,93.60
2023-03-27T20:22:07.732Z,93.40
2023-03-27T20:24:36.487Z,93.12
2023-03-27T20:27:07.092Z,93.49
2023-03-27T20:29:35.869Z,94.07
2023-03-27T20:32:06.325Z,94.47
2023-03-27T20:34:38.433Z,95.24
2023-03-27T20:37:12.181Z,94.87
2023-03-27T20:40:11.554Z,94.99
2023-03-27T20:42:47.121Z,95.43
2023-03-27T20:45:19.273Z,95.82
2023-03-27T20:47:48.732Z,95.82
2023-03-27T20:50:19.016Z,95.69
2023-03-27T20:52:48.339Z,94.93
2023-03-27T20:55:32.515Z,95.74
2023-03-27T20:58:07.270Z,98.13
2023-03-27T21:00:36.141Z,100.00
2023-03-27T21:03:07.797Z,100.00
2023-03-27T21:05:38.723Z,100.00
2023-03-27T21:08:08.160Z,100.00
2023-03-27T21:10:39.749Z,100.00
2023-03-27T21:13:08.806Z,100.00
2023-03-27T21:15:37.593Z,100.00
2023-03-27T21:18:06.677Z,100.00
2023-03-27T21:20:50.388Z,100.00
2023-03-27T21:23:23.292Z,100.00
2023-03-27T21:25:53.399Z,100.00
2023-03-27T21:28:22.878Z,100.00
2023-03-27T21:30:52.167Z,100.00
2023-03-27T21:33:21.321Z,100.00
2023-03-27T21:35:51.905Z,100.00
2023-03-27T21:38:21.054Z,100.00
2023-03-27T21:40:50.556Z,100.00
2023-03-27T21:43:21.412Z,100.00
2023-03-27T21:45:50.715Z,100.00
2023-03-27T21:48:20.597Z,100.00
2023-03-27T21:50:51.716Z,100.00
2023-03-27T21:53:20.997Z,100.00
2023-03-27T21:55:50.468Z,100.00
2023-03-27T21:58:20.198Z,100.00
2023-03-27T22:00:49.692Z,100.00
2023-03-27T22:03:19.180Z,100.00
2023-03-27T22:05:54.538Z,100.00
2023-03-27T22:08:31.794Z,100.00
2023-03-27T22:11:01.564Z,100.00
2023-03-27T22:13:33.837Z,100.00
2023-03-27T22:16:04.144Z,100.00
2023-03-27T22:18:33.956Z,100.00
2023-03-27T22:21:14.203Z,100.00
2023-03-27T22:23:45.595Z,100.00
2023-03-27T22:26:15.370Z,100.00
2023-03-27T22:28:45.351Z,100.00
2023-03-27T22:31:15.042Z,100.00
2023-03-27T22:33:44.587Z,100.00
2023-03-27T22:36:14.481Z,100.00
2023-03-27T22:38:45.500Z,100.00
2023-03-27T22:41:15.891Z,100.00
2023-03-27T22:43:47.895Z,100.00
2023-03-27T22:46:20.806Z,100.00
2023-03-27T22:48:54.958Z,100.00
2023-03-27T22:51:25.382Z,100.00
2023-03-27T22:53:56.799Z,100.00
2023-03-27T22:56:26.313Z,100.00
2023-03-27T22:58:58.402Z,100.00
2023-03-27T23:01:28.370Z,100.00
2023-03-27T23:03:57.723Z,100.00
2023-03-27T23:06:27.597Z,100.00
2023-03-27T23:08:58.632Z,100.00
2023-03-27T23:11:28.555Z,100.00
2023-03-27T23:13:58.132Z,100.00
2023-03-27T23:16:27.843Z,100.00
2023-03-27T23:18:57.662Z,100.00
2023-03-27T23:21:27.332Z,100.00
2023-03-27T23:23:58.313Z,100.00
2023-03-27T23:26:28.857Z,100.00
2023-03-27T23:28:59.678Z,100.00
2023-03-27T23:31:29.719Z,100.00
2023-03-27T23:34:01.296Z,100.00
2023-03-27T23:36:31.307Z,100.00
2023-03-27T23:39:03.200Z,100.00
2023-03-27T23:41:33.351Z,100.00
2023-03-27T23:44:02.952Z,100.00
2023-03-27T23:46:33.974Z,100.00
2023-03-27T23:49:03.820Z,100.00
2023-03-27T23:51:33.360Z,100.00
2023-03-27T23:54:03.972Z,100.00
2023-03-27T23:56:33.791Z,100.00
2023-03-27T23:59:03.128Z,100.00
